createdAt,value
2018-08-30T00:01:55.327Z,0.10
2018-08-30T00:04:22.563Z,0.28
2018-08-30T00:06:49.809Z,0.10
2018-08-30T00:09:17.067Z,0.15
2018-08-30T00:11:44.323Z,0.20
2018-08-30T00:14:11.576Z,0.10
2018-08-30T00:16:38.828Z,0.20
2018-08-30T00:19:06.092Z,0.10
2018-08-30T00:21:33.327Z,0.10
2018-08-30T00:24:00.547Z,0.20
2018-08-30T00:26:27.832Z,0.20
2018-08-30T00:28:55.075Z,1.37
2018-08-30T00:31:22.364Z,0.10
2018-08-30T00:33:49.583Z,0.10
2018-08-30T00:36:16.823Z,0.10
2018-08-30T00:38:44.055Z,0.65
2018-08-30T00:41:11.328Z,0.10
2018-08-30T00:43:38.490Z,0.00
2018-08-30T00:46:05.738Z,0.65
2018-08-30T00:48:32.975Z,0.10
2018-08-30T00:51:00.192Z,0.10
2018-08-30T00:53:27.436Z,0.10
2018-08-30T00:55:55.512Z,0.20
2018-08-30T00:58:22.763Z,0.20
2018-08-30T01:00:50.008Z,0.10
2018-08-30T01:03:17.237Z,0.03
2018-08-30T01:05:44.512Z,1.55
2018-08-30T01:08:11.783Z,0.10
2018-08-30T01:10:39.089Z,0.10
2018-08-30T01:13:06.325Z,0.10
2018-08-30T01:15:33.568Z,0.10
2018-08-30T01:18:00.787Z,0.10
2018-08-30T01:20:28.072Z,0.10
2018-08-30T01:22:55.375Z,0.10
2018-08-30T01:25:22.599Z,0.10
2018-08-30T01:27:49.831Z,0.10
2018-08-30T01:30:17.524Z,0.10
2018-08-30T01:32:44.988Z,0.10
2018-08-30T01:35:12.260Z,0.10
2018-08-30T01:37:39.523Z,0.62
2018-08-30T01:40:06.799Z,0.10
2018-08-30T01:42:34.042Z,0.10
2018-08-30T01:45:01.292Z,0.10
2018-08-30T01:47:28.514Z,0.10
2018-08-30T01:49:55.805Z,0.10
2018-08-30T01:52:23.106Z,0.10
2018-08-30T01:54:50.403Z,0.10
2018-08-30T01:57:17.611Z,0.25
2018-08-30T01:59:44.832Z,0.10
2018-08-30T02:02:12.086Z,0.10
2018-08-30T02:04:39.345Z,0.10
2018-08-30T02:07:06.623Z,0.30
2018-08-30T02:09:33.868Z,0.10
2018-08-30T02:12:01.163Z,0.10
2018-08-30T02:14:28.435Z,0.10
2018-08-30T02:16:55.695Z,0.10
2018-08-30T02:19:23.186Z,0.10
2018-08-30T02:21:50.428Z,0.10
2018-08-30T02:24:17.635Z,0.10
2018-08-30T02:26:44.872Z,0.10
2018-08-30T02:29:12.069Z,0.10
2018-08-30T02:31:39.288Z,0.10
2018-08-30T02:34:06.536Z,0.10
2018-08-30T02:36:33.752Z,0.10
2018-08-30T02:39:01.091Z,0.10
2018-08-30T02:41:28.323Z,0.10
2018-08-30T02:43:55.584Z,0.95
2018-08-30T02:46:22.828Z,0.10
2018-08-30T02:48:50.080Z,0.10
2018-08-30T02:51:17.280Z,0.03
2018-08-30T02:53:44.542Z,0.10
2018-08-30T02:56:11.796Z,0.20
2018-08-30T02:58:39.058Z,0.10
2018-08-30T03:01:06.349Z,0.10
2018-08-30T03:03:33.581Z,0.10
2018-08-30T03:06:00.822Z,0.23
2018-08-30T03:08:28.070Z,0.10
2018-08-30T03:10:55.299Z,0.10
2018-08-30T03:13:22.537Z,0.10
2018-08-30T03:15:49.758Z,0.10
2018-08-30T03:18:17.040Z,0.10
2018-08-30T03:20:44.246Z,0.42
2018-08-30T03:23:11.446Z,0.10
2018-08-30T03:25:38.695Z,0.10
2018-08-30T03:28:05.907Z,0.10
2018-08-30T03:30:33.210Z,0.10
2018-08-30T03:33:00.383Z,0.10
2018-08-30T03:35:27.583Z,0.10
2018-08-30T03:37:54.828Z,0.10
2018-08-30T03:40:22.094Z,0.10
2018-08-30T03:42:49.334Z,0.20
2018-08-30T03:45:16.552Z,0.10
2018-08-30T03:47:43.764Z,0.10
2018-08-30T03:50:11.063Z,0.10
2018-08-30T03:52:38.272Z,0.10
2018-08-30T03:55:05.549Z,0.10
2018-08-30T03:57:32.789Z,0.10
2018-08-30T04:00:00.055Z,0.10
2018-08-30T04:02:27.295Z,0.00
2018-08-30T04:04:54.523Z,0.10
2018-08-30T04:07:21.728Z,0.10
2018-08-30T04:09:49.005Z,0.10
2018-08-30T04:12:16.193Z,1.12
2018-08-30T04:14:43.436Z,0.10
2018-08-30T04:17:10.739Z,0.55
2018-08-30T04:19:37.951Z,0.10
2018-08-30T04:22:05.652Z,0.00
2018-08-30T04:24:32.783Z,0.10
2018-08-30T04:27:00.066Z,0.10
2018-08-30T04:29:27.251Z,0.10
2018-08-30T04:31:54.456Z,0.10
2018-08-30T04:34:21.732Z,0.20
2018-08-30T04:36:48.998Z,0.10
2018-08-30T04:39:16.235Z,0.10
2018-08-30T04:41:43.452Z,0.10
2018-08-30T04:44:10.807Z,0.10
2018-08-30T04:46:38.055Z,0.00
2018-08-30T04:49:05.291Z,0.10
2018-08-30T04:51:32.518Z,0.10
2018-08-30T04:53:59.780Z,0.20
2018-08-30T04:56:27.756Z,0.10
2018-08-30T04:58:54.991Z,0.15
2018-08-30T05:01:22.207Z,0.00
2018-08-30T05:03:49.500Z,0.10
2018-08-30T05:06:16.715Z,0.08
2018-08-30T05:08:43.963Z,0.10
2018-08-30T05:11:11.200Z,0.10
2018-08-30T05:13:38.406Z,0.10
2018-08-30T05:16:05.706Z,0.10
2018-08-30T05:18:32.968Z,0.20
2018-08-30T05:21:00.224Z,0.00
2018-08-30T05:23:27.476Z,1.07
2018-08-30T05:25:54.679Z,0.10
2018-08-30T05:28:21.909Z,0.15
2018-08-30T05:30:49.163Z,0.10
2018-08-30T05:33:16.419Z,0.10
2018-08-30T05:35:43.719Z,0.10
2018-08-30T05:38:10.959Z,0.10
2018-08-30T05:40:39.103Z,0.03
2018-08-30T05:43:06.290Z,0.17
2018-08-30T05:45:33.519Z,0.95
2018-08-30T05:48:00.725Z,0.30
2018-08-30T05:50:27.962Z,0.10
2018-08-30T05:52:55.207Z,0.70
2018-08-30T05:55:22.450Z,0.10
2018-08-30T05:57:49.679Z,0.10
2018-08-30T06:00:17.624Z,0.10
2018-08-30T06:02:44.831Z,0.28
2018-08-30T06:05:12.090Z,0.20
2018-08-30T06:07:39.312Z,0.10
2018-08-30T06:10:06.563Z,0.10
2018-08-30T06:12:33.803Z,0.20
2018-08-30T06:15:01.080Z,0.10
2018-08-30T06:17:28.285Z,0.17
2018-08-30T06:19:55.536Z,0.53
2018-08-30T06:22:22.735Z,0.30
2018-08-30T06:24:49.970Z,0.10
2018-08-30T06:27:17.196Z,0.40
2018-08-30T06:29:44.533Z,0.70
2018-08-30T06:32:11.785Z,0.10
2018-08-30T06:34:39.107Z,0.10
2018-08-30T06:37:06.312Z,0.00
2018-08-30T06:39:33.532Z,0.00
2018-08-30T06:42:00.784Z,0.10
2018-08-30T06:44:28.023Z,0.50
2018-08-30T06:46:55.235Z,0.00
2018-08-30T06:49:22.475Z,0.65
2018-08-30T06:51:49.744Z,0.10
2018-08-30T06:54:16.987Z,0.10
2018-08-30T06:56:44.195Z,0.10
2018-08-30T06:59:11.487Z,0.10
2018-08-30T07:01:38.770Z,0.10
2018-08-30T07:04:06.593Z,0.10
2018-08-30T07:06:33.804Z,0.82
2018-08-30T07:09:01.008Z,0.00
2018-08-30T07:11:28.263Z,0.10
2018-08-30T07:13:55.513Z,0.00
2018-08-30T07:16:22.759Z,0.10
2018-08-30T07:18:49.976Z,0.10
2018-08-30T07:21:17.203Z,0.40
2018-08-30T07:23:44.432Z,0.45
2018-08-30T07:26:11.671Z,0.10
2018-08-30T07:28:39.126Z,0.00
2018-08-30T07:31:06.326Z,0.00
2018-08-30T07:33:33.552Z,0.10
2018-08-30T07:36:00.867Z,0.40
2018-08-30T07:38:28.091Z,0.70
2018-08-30T07:40:55.318Z,0.10
2018-08-30T07:43:22.594Z,0.10
2018-08-30T07:45:49.856Z,0.10
2018-08-30T07:48:17.099Z,0.30
2018-08-30T07:50:44.333Z,0.20
2018-08-30T07:53:11.574Z,0.10
2018-08-30T07:55:38.852Z,0.40
2018-08-30T07:58:06.100Z,0.10
2018-08-30T08:00:33.352Z,0.10
2018-08-30T08:03:00.583Z,0.10
2018-08-30T08:05:27.835Z,0.10
2018-08-30T08:07:55.055Z,0.20
2018-08-30T08:10:22.320Z,0.00
2018-08-30T08:12:49.587Z,0.10
2018-08-30T08:15:16.827Z,0.30
2018-08-30T08:17:44.174Z,0.10
2018-08-30T08:20:11.383Z,0.00
2018-08-30T08:22:38.634Z,0.10
2018-08-30T08:25:05.884Z,0.00
2018-08-30T08:27:33.092Z,0.00
2018-08-30T08:30:00.318Z,0.10
2018-08-30T08:32:27.659Z,0.00
2018-08-30T08:34:54.973Z,0.10
2018-08-30T08:37:22.248Z,0.10
2018-08-30T08:39:49.537Z,0.10
2018-08-30T08:42:16.811Z,0.10
2018-08-30T08:44:44.052Z,0.10
2018-08-30T08:47:11.305Z,0.00
2018-08-30T08:49:38.588Z,0.10
2018-08-30T08:52:05.909Z,0.10
2018-08-30T08:54:33.356Z,0.10
2018-08-30T08:57:00.559Z,0.10
2018-08-30T08:59:27.800Z,0.03
2018-08-30T09:01:55.076Z,0.10
2018-08-30T09:04:22.326Z,0.08
2018-08-30T09:06:49.564Z,0.00
2018-08-30T09:09:16.795Z,0.00
2018-08-30T09:11:44.059Z,0.00
2018-08-30T09:14:11.386Z,0.00
2018-08-30T09:16:38.672Z,0.13
2018-08-30T09:19:06.016Z,2.47
2018-08-30T09:21:33.644Z,0.10
2018-08-30T09:24:00.871Z,0.03
2018-08-30T09:26:28.103Z,0.10
2018-08-30T09:28:55.388Z,0.03
2018-08-30T09:31:23.016Z,0.00
2018-08-30T09:33:50.300Z,0.00
2018-08-30T09:36:17.513Z,0.00
2018-08-30T09:38:44.819Z,0.10
2018-08-30T09:41:12.068Z,0.10
2018-08-30T09:43:39.332Z,0.08
2018-08-30T09:46:06.535Z,0.10
2018-08-30T09:48:33.770Z,0.10
2018-08-30T09:51:01.022Z,0.10
2018-08-30T09:53:28.529Z,0.10
2018-08-30T09:55:55.835Z,0.10
2018-08-30T09:58:23.105Z,0.10
2018-08-30T10:00:56.037Z,0.23
2018-08-30T10:03:23.265Z,0.10
2018-08-30T10:05:50.507Z,0.00
2018-08-30T10:08:17.765Z,0.25
2018-08-30T10:10:44.972Z,0.00
2018-08-30T10:13:12.206Z,0.00
2018-08-30T10:15:39.415Z,0.00
2018-08-30T10:18:06.669Z,0.10
2018-08-30T10:20:33.991Z,0.10
2018-08-30T10:23:01.275Z,0.10
2018-08-30T10:25:28.562Z,0.10
2018-08-30T10:27:55.758Z,0.13
2018-08-30T10:30:23.004Z,0.10
2018-08-30T10:32:50.247Z,0.10
2018-08-30T10:35:17.480Z,0.10
2018-08-30T10:37:44.710Z,0.10
2018-08-30T10:40:11.956Z,0.10
2018-08-30T10:42:39.247Z,0.13
2018-08-30T10:45:06.522Z,0.10
2018-08-30T10:47:33.750Z,0.10
2018-08-30T10:50:01.070Z,0.10
2018-08-30T10:52:28.239Z,0.00
2018-08-30T10:54:55.451Z,0.10
2018-08-30T10:57:22.709Z,0.10
2018-08-30T10:59:50.014Z,0.10
2018-08-30T11:02:17.331Z,0.10
2018-08-30T11:04:44.679Z,0.15
2018-08-30T11:07:11.935Z,0.10
2018-08-30T11:09:39.167Z,0.10
2018-08-30T11:12:06.391Z,1.92
2018-08-30T11:14:33.666Z,0.00
2018-08-30T11:17:00.959Z,0.10
2018-08-30T11:19:28.238Z,0.62
2018-08-30T11:21:55.472Z,0.03
2018-08-30T11:24:22.719Z,0.35
2018-08-30T11:26:49.940Z,0.30
2018-08-30T11:29:17.212Z,0.10
2018-08-30T11:31:44.443Z,0.10
2018-08-30T11:34:11.651Z,0.10
2018-08-30T11:36:38.875Z,0.03
2018-08-30T11:39:06.403Z,0.28
2018-08-30T11:41:33.914Z,0.20
2018-08-30T11:44:01.025Z,0.10
2018-08-30T11:46:28.259Z,0.88
2018-08-30T11:48:55.524Z,0.10
2018-08-30T11:51:22.775Z,0.10
2018-08-30T11:53:50.043Z,0.40
2018-08-30T11:56:17.327Z,0.85
2018-08-30T11:58:44.566Z,0.20
2018-08-30T12:01:11.794Z,0.10
2018-08-30T12:03:39.053Z,0.20
2018-08-30T12:06:06.334Z,0.10
2018-08-30T12:08:33.586Z,0.10
2018-08-30T12:11:01.072Z,0.10
2018-08-30T12:13:28.134Z,0.20
2018-08-30T12:15:55.365Z,0.10
2018-08-30T12:18:22.611Z,0.10
2018-08-30T12:20:49.996Z,0.10
2018-08-30T12:23:17.054Z,0.00
2018-08-30T12:25:44.341Z,0.05
2018-08-30T12:28:11.596Z,0.17
2018-08-30T12:30:38.851Z,1.75
2018-08-30T12:33:06.089Z,0.53
2018-08-30T12:35:33.406Z,0.10
2018-08-30T12:38:00.584Z,0.10
2018-08-30T12:40:27.975Z,0.33
2018-08-30T12:42:55.207Z,0.10
2018-08-30T12:45:22.436Z,0.10
2018-08-30T12:47:49.647Z,0.40
2018-08-30T12:50:17.007Z,0.10
2018-08-30T12:52:44.230Z,0.00
2018-08-30T12:55:11.474Z,0.15
2018-08-30T12:57:38.732Z,2.17
2018-08-30T13:00:06.263Z,0.10
2018-08-30T13:02:33.479Z,1.17
2018-08-30T13:05:00.797Z,0.10
2018-08-30T13:07:28.020Z,0.10
2018-08-30T13:09:55.255Z,0.10
2018-08-30T13:12:22.596Z,1.02
2018-08-30T13:14:49.876Z,0.10
2018-08-30T13:17:17.015Z,0.47
2018-08-30T13:19:44.932Z,0.57
2018-08-30T13:22:12.676Z,0.20
2018-08-30T13:24:39.778Z,0.23
2018-08-30T13:27:07.033Z,0.10
2018-08-30T13:29:34.265Z,0.10
2018-08-30T13:32:07.436Z,1.02
2018-08-30T13:34:35.236Z,0.55
2018-08-30T13:37:02.647Z,0.30
2018-08-30T13:39:29.988Z,0.75
2018-08-30T13:41:57.268Z,0.10
2018-08-30T13:44:24.618Z,0.47
2018-08-30T13:46:51.956Z,0.10
2018-08-30T13:49:18.875Z,0.95
2018-08-30T13:51:46.395Z,0.80
2018-08-30T13:54:14.671Z,0.10
2018-08-30T13:56:44.389Z,0.10
2018-08-30T13:59:11.461Z,0.17
2018-08-30T14:01:38.569Z,0.88
2018-08-30T14:04:05.915Z,0.25
2018-08-30T14:06:33.881Z,8.58
2018-08-30T14:09:01.337Z,0.10
2018-08-30T14:11:28.592Z,0.35
2018-08-30T14:13:55.924Z,0.13
2018-08-30T14:16:22.900Z,0.10
2018-08-30T14:18:50.588Z,0.57
2018-08-30T14:21:17.875Z,0.10
2018-08-30T14:23:45.120Z,0.85
2018-08-30T14:26:12.349Z,2.27
2018-08-30T14:28:39.695Z,0.33
2018-08-30T14:31:06.918Z,0.47
2018-08-30T14:33:34.147Z,0.13
2018-08-30T14:36:01.350Z,0.40
2018-08-30T14:38:28.587Z,0.35
2018-08-30T14:40:55.867Z,0.20
2018-08-30T14:43:23.127Z,0.20
2018-08-30T14:45:50.686Z,0.20
2018-08-30T14:48:17.752Z,0.30
2018-08-30T14:50:45.020Z,0.20
2018-08-30T14:53:12.281Z,0.10
2018-08-30T14:55:39.681Z,0.00
2018-08-30T14:58:07.372Z,0.10
2018-08-30T15:00:34.621Z,0.10
2018-08-30T15:03:01.853Z,0.30
2018-08-30T15:05:29.267Z,0.10
2018-08-30T15:07:56.428Z,0.10
2018-08-30T15:10:23.700Z,0.10
2018-08-30T15:12:50.997Z,0.70
2018-08-30T15:15:18.192Z,0.10
2018-08-30T15:17:45.417Z,0.15
2018-08-30T15:20:12.742Z,0.53
2018-08-30T15:22:39.938Z,0.13
2018-08-30T15:25:07.651Z,0.20
2018-08-30T15:27:34.992Z,0.10
2018-08-30T15:30:02.348Z,0.53
2018-08-30T15:32:29.712Z,0.23
2018-08-30T15:34:57.044Z,0.28
2018-08-30T15:37:25.168Z,0.10
2018-08-30T15:39:52.460Z,0.42
2018-08-30T15:42:19.799Z,0.10
2018-08-30T15:44:47.095Z,0.10
2018-08-30T15:47:16.734Z,0.25
2018-08-30T15:49:43.944Z,0.62
2018-08-30T15:52:11.705Z,0.10
2018-08-30T15:54:39.740Z,0.10
2018-08-30T15:57:07.129Z,0.20
2018-08-30T15:59:34.866Z,0.10
2018-08-30T16:02:03.020Z,0.10
2018-08-30T16:04:30.340Z,0.20
2018-08-30T16:06:57.636Z,0.20
2018-08-30T16:09:26.500Z,0.10
2018-08-30T16:11:53.903Z,1.07
2018-08-30T16:14:22.079Z,0.13
2018-08-30T16:16:50.045Z,0.10
2018-08-30T16:19:17.392Z,1.45
2018-08-30T16:21:44.566Z,0.33
2018-08-30T16:24:12.327Z,0.20
2018-08-30T16:26:39.599Z,0.00
2018-08-30T16:29:07.792Z,0.10
2018-08-30T16:31:35.069Z,0.20
2018-08-30T16:34:02.332Z,0.10
2018-08-30T16:36:29.656Z,0.62
2018-08-30T16:38:56.886Z,0.20
2018-08-30T16:41:25.067Z,0.30
2018-08-30T16:43:52.527Z,0.95
2018-08-30T16:46:19.797Z,0.85
2018-08-30T16:48:47.167Z,0.10
2018-08-30T16:53:49.824Z,0.10
2018-08-30T16:56:19.898Z,0.03
2018-08-30T16:58:47.156Z,0.10
2018-08-30T17:01:14.391Z,0.10
2018-08-30T17:03:41.879Z,0.10
2018-08-30T17:06:09.132Z,0.80
2018-08-30T17:08:38.643Z,0.10
2018-08-30T17:11:05.884Z,0.03
2018-08-30T17:13:33.558Z,0.20
2018-08-30T17:16:00.751Z,0.60
2018-08-30T17:18:28.236Z,0.10
2018-08-30T17:20:56.745Z,0.42
2018-08-30T17:23:24.143Z,1.17
2018-08-30T17:25:51.391Z,0.75
2018-08-30T17:28:18.703Z,0.20
2018-08-30T17:30:45.984Z,3.00
2018-08-30T17:33:13.236Z,0.10
2018-08-30T17:35:41.271Z,0.10
2018-08-30T17:38:08.579Z,0.20
2018-08-30T17:40:35.904Z,1.00
2018-08-30T17:43:03.492Z,0.10
2018-08-30T17:45:31.080Z,0.10
2018-08-30T17:47:58.251Z,0.10
2018-08-30T17:50:25.543Z,0.25
2018-08-30T17:52:52.904Z,0.10
2018-08-30T17:55:21.943Z,0.17
2018-08-30T17:57:49.330Z,0.10
2018-08-30T18:00:16.588Z,0.33
2018-08-30T18:02:44.758Z,0.10
2018-08-30T18:05:13.363Z,0.10
2018-08-30T18:07:40.613Z,0.10
2018-08-30T18:10:08.528Z,0.30
2018-08-30T18:12:36.399Z,0.10
2018-08-30T18:15:05.014Z,0.10
2018-08-30T18:17:32.263Z,0.17
2018-08-30T18:19:59.650Z,0.10
2018-08-30T18:22:26.963Z,0.30
2018-08-30T18:24:54.219Z,0.15
2018-08-30T18:27:21.661Z,0.40
2018-08-30T18:29:48.931Z,0.10
2018-08-30T18:32:18.343Z,0.10
2018-08-30T18:34:45.638Z,0.10
2018-08-30T18:37:12.942Z,0.10
2018-08-30T18:39:40.208Z,0.10
2018-08-30T18:42:07.430Z,0.10
2018-08-30T18:44:34.668Z,0.10
2018-08-30T18:47:01.987Z,0.23
2018-08-30T18:49:29.483Z,0.28
2018-08-30T18:51:56.865Z,0.30
2018-08-30T18:54:24.192Z,0.17
2018-08-30T18:56:51.508Z,0.30
2018-08-30T18:59:18.891Z,0.20
2018-08-30T19:01:46.165Z,0.57
2018-08-30T19:04:13.416Z,1.05
2018-08-30T19:06:40.647Z,0.10
2018-08-30T19:09:09.269Z,0.10
2018-08-30T19:11:36.598Z,0.20
2018-08-30T19:14:04.796Z,0.20
2018-08-30T19:16:38.303Z,0.10
2018-08-30T19:19:21.239Z,0.10
2018-08-30T19:21:48.539Z,0.10
2018-08-30T19:24:24.459Z,0.13
2018-08-30T19:26:52.660Z,0.28
2018-08-30T19:29:20.114Z,0.10
2018-08-30T19:31:47.405Z,0.10
2018-08-30T19:34:14.748Z,0.10
2018-08-30T19:36:42.189Z,0.10
2018-08-30T19:42:30.421Z,0.28
2018-08-30T19:45:05.096Z,0.10
2018-08-30T19:47:32.411Z,0.33
2018-08-30T19:50:02.756Z,0.10
2018-08-30T19:52:30.104Z,0.10
2018-08-30T19:54:57.514Z,0.10
2018-08-30T19:57:26.271Z,0.10
2018-08-30T19:59:54.731Z,0.20
2018-08-30T20:02:21.996Z,0.20
2018-08-30T20:04:51.443Z,0.10
2018-08-30T20:07:18.675Z,0.17
2018-08-30T20:09:46.028Z,0.35
2018-08-30T20:12:13.260Z,0.28
2018-08-30T20:14:40.503Z,0.10
2018-08-30T20:17:09.883Z,0.10
2018-08-30T20:19:40.803Z,0.20
2018-08-30T20:22:11.668Z,0.10
2018-08-30T20:24:41.733Z,1.75
2018-08-30T20:27:10.444Z,0.30
2018-08-30T20:29:37.806Z,0.00
2018-08-30T20:32:05.535Z,0.00
2018-08-30T20:34:34.752Z,0.10
2018-08-30T20:37:02.102Z,0.05
2018-08-30T20:39:30.350Z,0.00
2018-08-30T20:41:58.472Z,0.40
2018-08-30T20:44:26.996Z,0.10
2018-08-30T20:46:54.838Z,0.00
2018-08-30T20:49:22.195Z,0.10
2018-08-30T20:51:49.532Z,0.05
2018-08-30T20:54:17.395Z,0.20
2018-08-30T20:56:47.568Z,0.53
2018-08-30T20:59:15.007Z,0.10
2018-08-30T21:01:42.361Z,0.05
2018-08-30T21:04:09.603Z,0.00
2018-08-30T21:06:36.987Z,0.10
2018-08-30T21:09:25.029Z,0.00
2018-08-30T21:11:52.404Z,0.03
2018-08-30T21:14:19.732Z,0.10
2018-08-30T21:16:49.101Z,0.10
2018-08-30T21:19:18.843Z,0.08
2018-08-30T21:21:50.100Z,0.45
2018-08-30T21:24:17.455Z,0.10
2018-08-30T21:26:44.689Z,0.20
2018-08-30T21:29:14.117Z,0.05
2018-08-30T21:31:43.461Z,0.10
2018-08-30T21:34:11.454Z,0.10
2018-08-30T21:36:39.408Z,0.10
2018-08-30T21:39:08.270Z,0.10
2018-08-30T21:41:35.545Z,0.20
2018-08-30T21:44:02.852Z,0.75
2018-08-30T21:46:30.160Z,0.10
2018-08-30T21:48:57.489Z,1.02
2018-08-30T21:51:24.812Z,0.20
2018-08-30T21:53:52.060Z,0.10
2018-08-30T21:56:19.338Z,0.00
2018-08-30T21:58:46.724Z,0.10
2018-08-30T22:01:14.613Z,6.60
2018-08-30T22:03:41.951Z,0.10
2018-08-30T22:06:09.332Z,0.53
2018-08-30T22:08:36.583Z,0.10
2018-08-30T22:11:03.850Z,0.00
2018-08-30T22:13:31.229Z,0.00
2018-08-30T22:15:58.499Z,0.10
2018-08-30T22:18:25.755Z,0.00
2018-08-30T22:20:53.471Z,0.00
2018-08-30T22:23:20.912Z,0.50
2018-08-30T22:25:48.313Z,0.00
2018-08-30T22:28:15.740Z,0.62
2018-08-30T22:30:43.788Z,0.10
2018-08-30T22:33:11.192Z,0.10
2018-08-30T22:35:38.531Z,0.25
2018-08-30T22:38:05.871Z,0.13
2018-08-30T22:40:33.138Z,0.10
2018-08-30T22:43:00.871Z,0.45
2018-08-30T22:45:29.168Z,0.00
2018-08-30T22:47:56.445Z,0.10
2018-08-30T22:50:23.670Z,0.00
2018-08-30T22:52:51.635Z,0.10
2018-08-30T22:55:22.364Z,7.40
2018-08-30T22:57:49.707Z,0.10
2018-08-30T23:00:16.894Z,0.20
2018-08-30T23:02:44.256Z,0.30
2018-08-30T23:05:11.540Z,0.10
2018-08-30T23:07:39.141Z,0.08
2018-08-30T23:10:06.516Z,0.10
2018-08-30T23:12:33.752Z,0.37
2018-08-30T23:15:01.220Z,0.30
2018-08-30T23:17:28.636Z,0.10
2018-08-30T23:19:55.887Z,0.10
2018-08-30T23:22:25.037Z,0.10
2018-08-30T23:24:52.964Z,0.53
2018-08-30T23:27:20.222Z,137.37
2018-08-30T23:29:47.516Z,192.35
2018-08-30T23:32:14.764Z,146.45
2018-08-30T23:34:42.031Z,0.05
2018-08-30T23:37:09.355Z,0.00
2018-08-30T23:39:36.679Z,34.25
2018-08-30T23:42:03.997Z,0.00
2018-08-30T23:44:31.301Z,0.00
2018-08-30T23:46:58.531Z,0.00
2018-08-30T23:49:25.799Z,0.00
2018-08-30T23:51:53.139Z,0.45
2018-08-30T23:54:20.426Z,0.00
2018-08-30T23:56:47.789Z,0.00
2018-08-30T23:59:26.622Z,0.10
